createdAt,value
2018-04-19T00:00:38.437Z,68.89
2018-04-19T00:03:04.269Z,68.59
2018-04-19T00:05:30.103Z,70.51
2018-04-19T00:07:55.949Z,73.59
2018-04-19T00:10:21.821Z,72.93
2018-04-19T00:12:47.649Z,71.18
2018-04-19T00:15:13.492Z,71.04
2018-04-19T00:17:39.350Z,70.48
2018-04-19T00:20:05.201Z,70.15
2018-04-19T00:22:31.095Z,69.03
2018-04-19T00:24:56.966Z,69.07
2018-04-19T00:27:22.850Z,69.21
2018-04-19T00:29:48.693Z,69.10
2018-04-19T00:32:14.602Z,69.11
2018-04-19T00:34:40.437Z,69.56
2018-04-19T00:37:06.277Z,70.23
2018-04-19T00:39:32.133Z,71.26
2018-04-19T00:41:57.993Z,74.52
2018-04-19T00:44:23.840Z,74.64
2018-04-19T00:46:49.682Z,73.03
2018-04-19T00:49:15.536Z,71.80
2018-04-19T00:51:41.409Z,70.85
2018-04-19T00:54:07.286Z,70.44
2018-04-19T00:56:33.205Z,69.76
2018-04-19T00:58:59.056Z,69.11
2018-04-19T01:01:24.895Z,69.24
2018-04-19T01:03:50.738Z,70.96
2018-04-19T01:06:16.590Z,73.27
2018-04-19T01:08:42.469Z,72.40
2018-04-19T01:11:08.290Z,71.82
2018-04-19T01:13:34.123Z,71.48
2018-04-19T01:16:00.000Z,71.35
2018-04-19T01:18:25.845Z,71.24
2018-04-19T01:20:51.722Z,71.63
2018-04-19T01:23:17.561Z,71.38
2018-04-19T01:25:43.462Z,71.32
2018-04-19T01:28:09.329Z,70.86
2018-04-19T01:30:35.216Z,71.23
2018-04-19T01:33:01.061Z,71.14
2018-04-19T01:35:39.324Z,71.74
2018-04-19T01:38:05.181Z,72.35
2018-04-19T01:40:31.111Z,72.70
2018-04-19T01:42:56.980Z,72.86
2018-04-19T01:45:22.854Z,72.36
2018-04-19T01:47:48.697Z,74.42
2018-04-19T01:50:14.544Z,75.37
2018-04-19T01:52:40.401Z,74.52
2018-04-19T01:55:06.222Z,74.12
2018-04-19T01:57:32.076Z,74.52
2018-04-19T01:59:57.909Z,74.50
2018-04-19T02:02:23.777Z,74.69
2018-04-19T02:04:49.628Z,74.56
2018-04-19T02:07:15.472Z,73.88
2018-04-19T02:09:41.353Z,73.96
2018-04-19T02:12:07.229Z,75.38
2018-04-19T02:14:33.069Z,74.57
2018-04-19T02:16:58.893Z,73.77
2018-04-19T02:19:24.740Z,72.75
2018-04-19T02:21:50.589Z,72.53
2018-04-19T02:24:16.473Z,72.19
2018-04-19T02:26:42.323Z,72.00
2018-04-19T02:29:08.190Z,72.74
2018-04-19T02:31:34.042Z,73.98
2018-04-19T02:33:59.900Z,74.72
2018-04-19T02:36:25.798Z,76.63
2018-04-19T02:38:51.684Z,75.83
2018-04-19T02:41:17.542Z,74.77
2018-04-19T02:43:43.396Z,74.52
2018-04-19T02:46:09.270Z,73.76
2018-04-19T02:48:35.113Z,74.76
2018-04-19T02:51:00.953Z,74.18
2018-04-19T02:53:26.793Z,74.08
2018-04-19T02:55:52.704Z,73.83
2018-04-19T02:58:18.550Z,73.30
2018-04-19T03:00:44.396Z,73.76
2018-04-19T03:03:10.270Z,73.47
2018-04-19T03:05:36.146Z,73.40
2018-04-19T03:08:02.027Z,72.43
2018-04-19T03:10:27.887Z,73.25
2018-04-19T03:12:53.773Z,73.27
2018-04-19T03:15:19.601Z,73.42
2018-04-19T03:17:45.449Z,73.43
2018-04-19T03:20:11.280Z,73.65
2018-04-19T03:22:37.160Z,74.02
2018-04-19T03:25:03.076Z,73.84
2018-04-19T03:27:28.957Z,74.23
2018-04-19T03:29:54.840Z,76.82
2018-04-19T03:32:20.716Z,77.57
2018-04-19T03:34:46.586Z,77.25
2018-04-19T03:37:12.453Z,78.57
2018-04-19T03:39:38.318Z,78.24
2018-04-19T03:42:04.169Z,79.01
2018-04-19T03:44:30.030Z,77.83
2018-04-19T03:46:55.873Z,76.41
2018-04-19T03:49:21.814Z,75.15
2018-04-19T03:51:47.668Z,74.80
2018-04-19T03:54:13.546Z,73.96
2018-04-19T03:56:39.407Z,75.04
2018-04-19T03:59:05.269Z,75.99
2018-04-19T04:01:31.152Z,75.20
2018-04-19T04:03:57.012Z,75.30
2018-04-19T04:06:22.928Z,75.58
2018-04-19T04:08:48.790Z,75.36
2018-04-19T04:11:14.594Z,75.00
2018-04-19T04:13:40.487Z,75.08
2018-04-19T04:16:06.384Z,75.30
2018-04-19T04:18:44.604Z,75.71
2018-04-19T04:21:17.580Z,76.10
2018-04-19T04:23:50.605Z,75.94
2018-04-19T04:26:16.449Z,75.53
2018-04-19T04:28:43.185Z,75.30
2018-04-19T04:31:09.084Z,75.14
2018-04-19T04:33:34.902Z,75.55
2018-04-19T04:36:00.760Z,75.25
2018-04-19T04:38:26.617Z,75.69
2018-04-19T04:40:52.472Z,75.70
2018-04-19T04:43:18.350Z,75.91
2018-04-19T04:45:44.205Z,75.85
2018-04-19T04:48:10.065Z,77.33
2018-04-19T04:50:35.940Z,76.36
2018-04-19T04:53:01.800Z,76.06
2018-04-19T04:55:27.676Z,75.75
2018-04-19T04:57:53.529Z,75.49
2018-04-19T05:00:19.368Z,75.29
2018-04-19T05:02:45.236Z,75.08
2018-04-19T05:05:11.145Z,74.95
2018-04-19T05:07:37.004Z,74.58
2018-04-19T05:10:02.911Z,75.06
2018-04-19T05:12:28.736Z,74.60
2018-04-19T05:14:54.584Z,74.30
2018-04-19T05:17:20.468Z,73.79
2018-04-19T05:19:46.354Z,73.93
2018-04-19T05:22:12.213Z,74.33
2018-04-19T05:24:38.081Z,78.86
2018-04-19T05:27:03.919Z,80.33
2018-04-19T05:29:29.761Z,80.30
2018-04-19T05:31:55.653Z,79.79
2018-04-19T05:34:21.539Z,78.98
2018-04-19T05:36:47.432Z,76.47
2018-04-19T05:39:13.311Z,75.69
2018-04-19T05:41:39.194Z,73.93
2018-04-19T05:44:05.064Z,72.69
2018-04-19T05:46:30.930Z,71.68
2018-04-19T05:48:56.797Z,69.84
2018-04-19T05:51:22.663Z,68.89
2018-04-19T05:53:48.529Z,69.57
2018-04-19T05:56:14.379Z,68.72
2018-04-19T05:58:40.240Z,67.84
2018-04-19T06:01:06.101Z,67.18
2018-04-19T06:03:31.984Z,67.10
2018-04-19T06:05:57.826Z,68.16
2018-04-19T06:08:23.675Z,69.15
2018-04-19T06:10:49.526Z,69.74
2018-04-19T06:13:15.384Z,68.00
2018-04-19T06:15:41.224Z,66.70
2018-04-19T06:18:07.092Z,67.02
2018-04-19T06:20:32.973Z,66.24
2018-04-19T06:22:58.840Z,64.67
2018-04-19T06:25:24.740Z,61.81
2018-04-19T06:27:50.597Z,61.68
2018-04-19T06:30:16.533Z,60.78
2018-04-19T06:32:42.349Z,60.83
2018-04-19T06:35:08.236Z,59.76
2018-04-19T06:37:34.105Z,59.11
2018-04-19T06:39:59.964Z,58.78
2018-04-19T06:42:25.814Z,57.79
2018-04-19T06:44:51.648Z,56.44
2018-04-19T06:47:17.471Z,58.33
2018-04-19T06:49:43.324Z,58.22
2018-04-19T06:52:09.193Z,57.23
2018-04-19T06:54:35.044Z,56.64
2018-04-19T06:57:00.899Z,56.45
2018-04-19T06:59:26.726Z,55.34
2018-04-19T07:01:52.597Z,55.82
2018-04-19T07:04:18.467Z,55.58
2018-04-19T07:06:44.375Z,55.50
2018-04-19T07:09:10.228Z,54.22
2018-04-19T07:11:36.096Z,54.70
2018-04-19T07:14:01.975Z,54.08
2018-04-19T07:16:27.840Z,55.12
2018-04-19T07:18:53.697Z,55.69
2018-04-19T07:21:19.546Z,54.72
2018-04-19T07:23:45.428Z,55.66
2018-04-19T07:26:11.288Z,55.23
2018-04-19T07:28:37.168Z,54.83
2018-04-19T07:31:03.034Z,54.16
2018-04-19T07:33:28.942Z,54.77
2018-04-19T07:35:54.785Z,53.67
2018-04-19T07:38:20.650Z,53.85
2018-04-19T07:40:46.501Z,52.91
2018-04-19T07:43:12.388Z,51.20
2018-04-19T07:45:38.251Z,50.50
2018-04-19T07:48:04.091Z,49.28
2018-04-19T07:50:30.005Z,47.86
2018-04-19T07:52:55.873Z,47.96
2018-04-19T07:55:21.748Z,40.94
2018-04-19T07:57:47.602Z,39.85
2018-04-19T08:00:13.476Z,39.60
2018-04-19T08:02:39.360Z,38.27
2018-04-19T08:05:05.296Z,39.04
2018-04-19T08:07:31.113Z,38.72
2018-04-19T08:09:56.933Z,39.38
2018-04-19T08:12:22.800Z,38.06
2018-04-19T08:14:48.649Z,40.09
2018-04-19T08:17:14.497Z,38.44
2018-04-19T08:19:40.313Z,37.95
2018-04-19T08:22:06.149Z,38.68
2018-04-19T08:24:31.985Z,37.72
2018-04-19T08:26:57.800Z,38.76
2018-04-19T08:29:23.629Z,39.48
2018-04-19T08:31:49.446Z,38.57
2018-04-19T08:34:15.265Z,39.17
2018-04-19T08:36:41.106Z,37.91
2018-04-19T08:39:06.947Z,38.62
2018-04-19T08:41:32.800Z,38.47
2018-04-19T08:43:58.613Z,37.77
2018-04-19T08:46:24.462Z,38.13
2018-04-19T08:48:50.334Z,37.35
2018-04-19T08:51:16.173Z,37.23
2018-04-19T08:53:42.013Z,36.25
2018-04-19T08:56:07.834Z,35.82
2018-04-19T08:58:33.670Z,37.01
2018-04-19T09:00:59.490Z,35.03
2018-04-19T09:03:25.357Z,34.97
2018-04-19T09:05:51.178Z,35.97
2018-04-19T09:08:17.001Z,35.73
2018-04-19T09:10:42.821Z,35.41
2018-04-19T09:13:08.656Z,35.70
2018-04-19T09:15:34.464Z,35.73
2018-04-19T09:18:00.286Z,36.22
2018-04-19T09:20:26.116Z,35.12
2018-04-19T09:22:51.947Z,34.27
2018-04-19T09:25:17.806Z,34.72
2018-04-19T09:27:43.638Z,34.53
2018-04-19T09:30:09.484Z,35.47
2018-04-19T09:32:35.309Z,33.63
2018-04-19T09:35:01.181Z,34.80
2018-04-19T09:37:27.021Z,35.32
2018-04-19T09:39:52.849Z,33.66
2018-04-19T09:42:18.677Z,34.24
2018-04-19T09:44:44.493Z,33.61
2018-04-19T09:47:10.332Z,33.53
2018-04-19T09:49:36.136Z,34.17
2018-04-19T09:52:01.985Z,35.88
2018-04-19T09:54:27.812Z,32.48
2018-04-19T09:56:53.666Z,31.65
2018-04-19T09:59:19.523Z,32.29
2018-04-19T10:01:51.302Z,33.68
2018-04-19T10:04:23.307Z,34.49
2018-04-19T10:06:49.133Z,31.99
2018-04-19T10:09:14.961Z,33.11
2018-04-19T10:11:40.782Z,32.82
2018-04-19T10:14:06.622Z,32.13
2018-04-19T10:16:32.437Z,33.19
2018-04-19T10:18:58.260Z,31.79
2018-04-19T10:21:24.134Z,32.87
2018-04-19T10:23:49.997Z,32.16
2018-04-19T10:26:15.817Z,31.80
2018-04-19T10:28:41.637Z,30.94
2018-04-19T10:31:07.514Z,28.85
2018-04-19T10:33:33.341Z,30.26
2018-04-19T10:35:59.193Z,28.56
2018-04-19T10:38:25.019Z,28.46
2018-04-19T10:40:50.840Z,28.94
2018-04-19T10:43:16.698Z,29.52
2018-04-19T10:45:42.560Z,29.57
2018-04-19T10:48:08.363Z,26.56
2018-04-19T10:50:34.182Z,27.82
2018-04-19T10:53:00.022Z,27.23
2018-04-19T10:55:25.854Z,27.32
2018-04-19T10:57:51.686Z,27.15
2018-04-19T11:00:17.499Z,27.69
2018-04-19T11:02:43.317Z,27.97
2018-04-19T11:05:09.121Z,27.75
2018-04-19T11:07:34.941Z,27.23
2018-04-19T11:10:00.773Z,25.86
2018-04-19T11:12:26.668Z,25.37
2018-04-19T11:14:52.433Z,25.87
2018-04-19T11:17:18.258Z,27.18
2018-04-19T11:19:44.097Z,26.97
2018-04-19T11:22:09.916Z,26.91
2018-04-19T11:24:35.728Z,26.13
2018-04-19T11:27:01.553Z,27.20
2018-04-19T11:29:27.366Z,26.81
2018-04-19T11:31:53.185Z,26.30
2018-04-19T11:34:19.021Z,26.68
2018-04-19T11:36:44.886Z,29.21
2018-04-19T11:39:10.654Z,25.69
2018-04-19T11:41:36.478Z,26.28
2018-04-19T11:44:02.329Z,27.51
2018-04-19T11:46:28.145Z,27.63
2018-04-19T11:48:53.966Z,26.96
2018-04-19T11:51:19.786Z,25.61
2018-04-19T11:53:45.620Z,25.12
2018-04-19T11:56:11.450Z,24.43
2018-04-19T11:58:37.266Z,23.20
2018-04-19T12:01:03.139Z,22.88
2018-04-19T12:03:28.923Z,22.53
2018-04-19T12:05:54.765Z,20.96
2018-04-19T12:08:20.596Z,20.23
2018-04-19T12:10:46.429Z,21.84
2018-04-19T12:13:12.241Z,21.26
2018-04-19T12:15:38.073Z,20.26
2018-04-19T12:18:03.907Z,20.93
2018-04-19T12:20:29.726Z,21.09
2018-04-19T12:22:55.589Z,20.45
2018-04-19T12:25:21.646Z,20.82
2018-04-19T12:27:47.469Z,20.44
2018-04-19T12:30:13.840Z,19.53
2018-04-19T12:32:40.068Z,20.29
2018-04-19T12:35:05.922Z,20.06
2018-04-19T12:37:31.787Z,19.74
2018-04-19T12:39:57.578Z,20.23
2018-04-19T12:42:23.406Z,20.00
2018-04-19T12:44:49.254Z,20.80
2018-04-19T12:47:15.084Z,21.05
2018-04-19T12:49:40.950Z,21.32
2018-04-19T12:52:06.716Z,19.80
2018-04-19T12:54:32.532Z,19.59
2018-04-19T12:56:58.353Z,20.05
2018-04-19T12:59:24.187Z,19.10
2018-04-19T13:01:50.010Z,20.12
2018-04-19T13:04:15.859Z,19.59
2018-04-19T13:06:41.673Z,20.01
2018-04-19T13:09:07.477Z,18.21
2018-04-19T13:11:33.309Z,18.28
2018-04-19T13:13:59.116Z,18.30
2018-04-19T13:16:24.942Z,18.24
2018-04-19T13:18:50.757Z,17.54
2018-04-19T13:21:16.593Z,18.24
2018-04-19T13:23:42.431Z,18.62
2018-04-19T13:26:08.261Z,19.10
2018-04-19T13:28:34.109Z,18.49
2018-04-19T13:30:59.929Z,18.65
2018-04-19T13:33:25.783Z,18.58
2018-04-19T13:35:51.597Z,18.51
2018-04-19T13:38:17.416Z,19.82
2018-04-19T13:40:43.253Z,20.11
2018-04-19T13:43:09.098Z,18.98
2018-04-19T13:45:34.932Z,19.21
2018-04-19T13:48:00.772Z,18.88
2018-04-19T13:50:26.610Z,18.26
2018-04-19T13:52:52.413Z,18.81
2018-04-19T13:55:18.247Z,18.37
2018-04-19T13:57:44.077Z,18.64
2018-04-19T14:00:09.918Z,19.33
2018-04-19T14:02:35.737Z,18.06
2018-04-19T14:05:01.580Z,18.00
2018-04-19T14:07:27.397Z,15.58
2018-04-19T14:09:53.253Z,15.32
2018-04-19T14:12:19.093Z,16.94
2018-04-19T14:14:44.929Z,18.25
2018-04-19T14:17:10.794Z,16.42
2018-04-19T14:19:36.626Z,15.83
2018-04-19T14:22:03.420Z,16.01
2018-04-19T14:24:29.267Z,17.21
2018-04-19T14:26:55.109Z,17.42
2018-04-19T14:29:20.953Z,16.75
2018-04-19T14:31:47.678Z,16.65
2018-04-19T14:34:13.501Z,16.42
2018-04-19T14:36:39.333Z,16.06
2018-04-19T14:39:05.186Z,17.67
2018-04-19T14:41:31.070Z,16.76
2018-04-19T14:43:56.905Z,15.97
2018-04-19T14:46:22.798Z,16.33
2018-04-19T14:48:48.659Z,16.09
2018-04-19T14:51:14.477Z,16.42
2018-04-19T14:53:40.312Z,16.59
2018-04-19T14:56:06.141Z,16.96
2018-04-19T14:58:31.995Z,16.83
2018-04-19T15:00:57.973Z,17.32
2018-04-19T15:03:23.819Z,17.77
2018-04-19T15:05:49.643Z,18.21
2018-04-19T15:08:15.481Z,17.75
2018-04-19T15:10:41.341Z,17.46
2018-04-19T15:13:07.161Z,17.69
2018-04-19T15:15:33.028Z,18.36
2018-04-19T15:17:58.862Z,17.96
2018-04-19T15:20:24.766Z,17.90
2018-04-19T15:22:50.690Z,18.44
2018-04-19T15:25:16.546Z,18.15
2018-04-19T15:27:42.429Z,18.80
2018-04-19T15:30:08.276Z,18.53
2018-04-19T15:32:34.138Z,18.99
2018-04-19T15:34:59.945Z,18.54
2018-04-19T15:37:25.799Z,18.67
2018-04-19T15:39:51.638Z,17.85
2018-04-19T15:42:17.458Z,18.83
2018-04-19T15:44:43.582Z,18.12
2018-04-19T15:47:09.430Z,18.59
2018-04-19T15:49:35.337Z,18.40
2018-04-19T15:52:01.220Z,19.00
2018-04-19T15:54:27.102Z,18.22
2018-04-19T15:56:53.006Z,18.42
2018-04-19T15:59:18.881Z,18.69
2018-04-19T16:01:44.761Z,19.65
2018-04-19T16:04:10.613Z,19.67
2018-04-19T16:06:36.476Z,19.47
2018-04-19T16:09:02.439Z,19.43
2018-04-19T16:11:28.303Z,19.26
2018-04-19T16:13:54.209Z,19.89
2018-04-19T16:16:20.169Z,19.13
2018-04-19T16:18:46.092Z,19.36
2018-04-19T16:21:12.026Z,20.56
2018-04-19T16:23:37.873Z,20.04
2018-04-19T16:26:03.760Z,21.00
2018-04-19T16:28:29.626Z,21.60
2018-04-19T16:30:55.497Z,22.12
2018-04-19T16:33:21.355Z,21.96
2018-04-19T16:35:47.213Z,20.95
2018-04-19T16:38:13.100Z,20.68
2018-04-19T16:40:39.013Z,20.72
2018-04-19T16:43:04.935Z,21.15
2018-04-19T16:45:30.831Z,21.98
2018-04-19T16:47:56.664Z,22.85
2018-04-19T16:50:22.556Z,22.42
2018-04-19T16:52:48.414Z,22.80
2018-04-19T16:55:14.260Z,23.57
2018-04-19T16:57:40.128Z,23.61
2018-04-19T17:00:06.020Z,23.81
2018-04-19T17:02:31.881Z,23.81
2018-04-19T17:04:57.748Z,23.93
2018-04-19T17:07:23.597Z,24.34
2018-04-19T17:09:49.432Z,24.60
2018-04-19T17:12:15.364Z,25.14
2018-04-19T17:14:41.289Z,24.98
2018-04-19T17:17:07.139Z,24.84
2018-04-19T17:19:32.977Z,25.33
2018-04-19T17:21:58.888Z,25.88
2018-04-19T17:24:24.796Z,26.31
2018-04-19T17:26:50.637Z,25.96
2018-04-19T17:29:16.537Z,26.29
2018-04-19T17:31:42.422Z,26.79
2018-04-19T17:34:08.274Z,27.48
2018-04-19T17:36:34.098Z,27.70
2018-04-19T17:39:00.133Z,28.44
2018-04-19T17:41:25.993Z,28.48
2018-04-19T17:43:51.893Z,28.92
2018-04-19T17:46:17.835Z,28.75
2018-04-19T17:48:43.720Z,29.43
2018-04-19T17:51:09.601Z,30.05
2018-04-19T17:53:35.464Z,30.42
2018-04-19T17:56:01.333Z,30.40
2018-04-19T17:58:27.171Z,31.05
2018-04-19T18:00:53.069Z,31.17
2018-04-19T18:03:18.940Z,31.10
2018-04-19T18:05:44.833Z,31.50
2018-04-19T18:08:10.675Z,31.82
2018-04-19T18:10:36.528Z,31.94
2018-04-19T18:13:02.547Z,32.34
2018-04-19T18:15:28.512Z,33.15
2018-04-19T18:17:54.412Z,33.11
2018-04-19T18:20:20.306Z,33.31
2018-04-19T18:22:46.173Z,33.66
2018-04-19T18:25:12.037Z,34.31
2018-04-19T18:27:37.981Z,34.25
2018-04-19T18:30:03.895Z,34.76
2018-04-19T18:32:29.768Z,35.68
2018-04-19T18:34:55.701Z,35.56
2018-04-19T18:37:21.625Z,36.02
2018-04-19T18:39:47.481Z,36.46
2018-04-19T18:42:13.333Z,36.84
2018-04-19T18:44:39.265Z,36.94
2018-04-19T18:47:05.200Z,37.27
2018-04-19T18:49:31.104Z,37.62
2018-04-19T18:51:56.984Z,37.66
2018-04-19T18:54:22.907Z,38.41
2018-04-19T18:56:48.769Z,38.57
2018-04-19T18:59:14.635Z,38.75
2018-04-19T19:01:40.592Z,39.46
2018-04-19T19:04:06.470Z,40.18
2018-04-19T19:06:32.369Z,40.85
2018-04-19T19:08:58.270Z,40.74
2018-04-19T19:11:24.140Z,40.80
2018-04-19T19:13:50.028Z,41.19
2018-04-19T19:16:15.928Z,41.73
2018-04-19T19:18:54.202Z,41.48
2018-04-19T19:21:20.064Z,41.88
2018-04-19T19:23:45.943Z,41.63
2018-04-19T19:26:11.819Z,41.97
2018-04-19T19:28:37.704Z,42.27
2018-04-19T19:31:03.685Z,42.31
2018-04-19T19:33:29.554Z,43.13
2018-04-19T19:35:55.418Z,43.41
2018-04-19T19:38:21.289Z,43.86
2018-04-19T19:40:47.208Z,44.80
2018-04-19T19:43:13.089Z,44.82
2018-04-19T19:45:38.941Z,44.97
2018-04-19T19:48:04.804Z,45.23
2018-04-19T19:50:30.686Z,45.19
2018-04-19T19:52:56.605Z,45.18
2018-04-19T19:55:29.443Z,44.68
2018-04-19T19:57:55.392Z,44.61
2018-04-19T20:00:21.324Z,44.34
2018-04-19T20:02:47.206Z,45.06
2018-04-19T20:05:13.115Z,45.90
2018-04-19T20:07:39.007Z,46.97
2018-04-19T20:10:05.011Z,51.29
2018-04-19T20:12:30.921Z,52.23
2018-04-19T20:14:56.771Z,51.75
2018-04-19T20:17:22.695Z,51.47
2018-04-19T20:19:48.572Z,50.59
2018-04-19T20:22:14.499Z,50.45
2018-04-19T20:24:40.349Z,49.56
2018-04-19T20:27:06.193Z,50.63
2018-04-19T20:29:32.064Z,50.53
2018-04-19T20:31:57.947Z,53.83
2018-04-19T20:34:23.798Z,53.49
2018-04-19T20:36:49.683Z,51.83
2018-04-19T20:39:15.553Z,50.90
2018-04-19T20:41:41.421Z,50.17
2018-04-19T20:44:07.275Z,50.26
2018-04-19T20:46:33.116Z,50.63
2018-04-19T20:48:59.007Z,51.24
2018-04-19T20:51:24.880Z,53.95
2018-04-19T20:53:50.744Z,54.74
2018-04-19T20:56:16.572Z,54.46
2018-04-19T20:58:42.461Z,54.66
2018-04-19T21:01:08.324Z,54.06
2018-04-19T21:03:34.185Z,53.55
2018-04-19T21:06:00.124Z,54.29
2018-04-19T21:08:26.022Z,56.58
2018-04-19T21:10:51.947Z,55.94
2018-04-19T21:13:17.785Z,55.03
2018-04-19T21:15:43.638Z,54.07
2018-04-19T21:18:09.505Z,54.24
2018-04-19T21:20:35.367Z,54.41
2018-04-19T21:23:01.282Z,54.57
2018-04-19T21:25:27.146Z,54.67
2018-04-19T21:27:52.999Z,54.33
2018-04-19T21:30:18.844Z,54.78
2018-04-19T21:32:44.708Z,54.60
2018-04-19T21:35:10.569Z,54.91
2018-04-19T21:37:36.452Z,55.04
2018-04-19T21:40:02.340Z,55.74
2018-04-19T21:42:28.176Z,55.96
2018-04-19T21:44:54.048Z,55.92
2018-04-19T21:47:19.908Z,55.83
2018-04-19T21:49:45.796Z,56.14
2018-04-19T21:52:11.693Z,56.05
2018-04-19T21:54:37.589Z,56.25
2018-04-19T21:57:03.464Z,56.49
2018-04-19T21:59:29.368Z,57.08
2018-04-19T22:01:55.199Z,56.46
2018-04-19T22:04:21.057Z,56.63
2018-04-19T22:06:46.924Z,56.66
2018-04-19T22:09:12.785Z,57.64
2018-04-19T22:11:38.665Z,58.23
2018-04-19T22:14:04.507Z,59.33
2018-04-19T22:16:30.390Z,60.60
2018-04-19T22:18:56.282Z,61.86
2018-04-19T22:21:22.156Z,63.16
2018-04-19T22:23:48.019Z,63.45
2018-04-19T22:26:13.901Z,63.32
2018-04-19T22:28:39.776Z,61.99
2018-04-19T22:31:05.683Z,61.05
2018-04-19T22:33:31.520Z,61.83
2018-04-19T22:35:57.375Z,61.20
2018-04-19T22:38:23.283Z,61.17
2018-04-19T22:40:49.179Z,61.71
2018-04-19T22:43:15.041Z,62.09
2018-04-19T22:45:40.929Z,62.85
2018-04-19T22:48:06.832Z,62.74
2018-04-19T22:50:32.703Z,61.76
2018-04-19T22:52:58.580Z,61.61
2018-04-19T22:55:24.437Z,61.98
2018-04-19T22:57:50.288Z,62.27
2018-04-19T23:00:16.157Z,62.26
2018-04-19T23:02:42.030Z,63.46
2018-04-19T23:05:07.893Z,63.99
2018-04-19T23:07:33.732Z,64.61
2018-04-19T23:09:59.687Z,64.71
2018-04-19T23:12:25.573Z,66.13
2018-04-19T23:14:51.473Z,65.62
2018-04-19T23:17:17.368Z,66.08
2018-04-19T23:19:43.211Z,64.47
2018-04-19T23:22:09.069Z,63.85
2018-04-19T23:24:34.943Z,62.97
2018-04-19T23:27:00.769Z,62.35
2018-04-19T23:29:26.578Z,63.22
2018-04-19T23:31:52.408Z,65.35
2018-04-19T23:34:18.264Z,66.53
2018-04-19T23:36:44.069Z,65.30
2018-04-19T23:39:09.879Z,65.58
2018-04-19T23:41:35.722Z,65.32
2018-04-19T23:44:01.545Z,66.42
2018-04-19T23:46:27.436Z,67.54
2018-04-19T23:48:53.285Z,65.66
2018-04-19T23:51:19.105Z,65.75
2018-04-19T23:53:44.921Z,65.52
2018-04-19T23:56:10.785Z,65.52
2018-04-19T23:58:36.601Z,64.69
